Time;durP1;ratioP1;P1;durP2;ratioP2;P2;SDS_P1;SDS_P2;PMS_P1;PMS_P2;Temp;Humidity;BMP_temperature;BMP_pressure;BME280_temperature;BME280_humidity;BME280_pressure;Samples;Min_cycle;Max_cycle;Signal;HPM_P1;HPM_P2
2021/10/15 00:00:28;;;;;;;6.40;4.13;;;;;;;9.97;85.35;98841.94;4139059;28;20360;-72
2021/10/15 00:02:28;;;;;;;6.55;4.00;;;;;;;10.00;85.54;98843.97;4139217;28;20300;-71
2021/10/15 00:04:28;;;;;;;5.22;3.90;;;;;;;9.99;85.42;98853.41;4138439;28;20471;-72
2021/10/15 00:06:29;;;;;;;5.65;3.85;;;;;;;9.96;84.98;98837.56;4138483;28;20038;-72
2021/10/15 00:08:29;;;;;;;6.38;4.43;;;;;;;10.02;84.71;98843.63;4139215;28;20386;-71
2021/10/15 00:10:29;;;;;;;6.47;4.30;;;;;;;10.00;84.76;98832.91;4143466;28;20457;-72
2021/10/15 00:12:30;;;;;;;7.20;3.85;;;;;;;10.03;84.58;98836.91;4139320;28;20046;-71
2021/10/15 00:14:31;;;;;;;5.80;3.50;;;;;;;10.02;84.86;98841.66;4138225;28;20046;-72
2021/10/15 00:16:31;;;;;;;4.65;3.60;;;;;;;10.02;85.54;98835.31;4139961;28;20121;-72
2021/10/15 00:18:32;;;;;;;6.55;3.97;;;;;;;10.02;84.52;98827.03;4139397;28;20202;-71
2021/10/15 00:20:32;;;;;;;5.30;3.88;;;;;;;10.01;84.19;98823.47;4138565;28;20034;-72
2021/10/15 00:22:33;;;;;;;8.55;3.78;;;;;;;10.06;84.22;98827.88;4138709;28;20068;-72
2021/10/15 00:24:33;;;;;;;4.00;3.58;;;;;;;10.09;84.13;98818.84;4137790;28;20113;-72
2021/10/15 00:26:34;;;;;;;6.03;4.15;;;;;;;10.07;84.67;98812.88;4141888;28;20050;-71
2021/10/15 00:28:34;;;;;;;5.72;3.53;;;;;;;10.08;84.48;98820.81;4138841;28;20390;-71
2021/10/15 00:30:34;;;;;;;5.55;3.60;;;;;;;10.10;84.17;98815.75;4138890;28;20776;-72
2021/10/15 00:32:35;;;;;;;6.82;3.75;;;;;;;10.11;84.68;98822.88;4139226;28;20424;-71
2021/10/15 00:34:35;;;;;;;6.25;3.45;;;;;;;10.13;83.73;98805.91;4137953;28;20521;-71
2021/10/15 00:36:35;;;;;;;5.25;3.33;;;;;;;10.12;84.22;98812.59;4138648;28;20041;-71
2021/10/15 00:38:36;;;;;;;5.55;3.58;;;;;;;10.08;83.73;98801.47;4138567;28;20381;-72
2021/10/15 00:40:36;;;;;;;10.65;3.83;;;;;;;10.10;84.74;98801.91;4138500;28;20044;-71
2021/10/15 00:42:37;;;;;;;5.20;3.25;;;;;;;10.17;83.24;98808.72;4141872;28;20347;-72
2021/10/15 00:44:38;;;;;;;5.78;3.42;;;;;;;10.17;83.92;98794.91;4139467;28;20209;-72
2021/10/15 00:46:40;;;;;;;6.20;3.72;;;;;;;10.20;83.53;98800.50;4140432;28;20112;-71
2021/10/15 00:48:40;;;;;;;6.18;3.45;;;;;;;10.23;83.21;98804.53;4138464;28;20041;-72
2021/10/15 00:50:43;;;;;;;6.72;3.40;;;;;;;10.28;82.70;98796.72;4141065;28;20038;-72
2021/10/15 00:52:43;;;;;;;;;;;;;;;10.25;83.68;98786.38;4138626;28;20739;-71
2021/10/15 00:54:46;;;;;;;5.80;3.47;;;;;;;10.29;83.12;98787.25;4136624;28;20006;-71
2021/10/15 00:56:47;;;;;;;;;;;;;;;10.28;83.29;98793.16;4138564;28;20054;-72
2021/10/15 00:58:47;;;;;;;5.75;3.17;;;;;;;10.25;83.69;98780.84;4138261;28;20254;-72
2021/10/15 01:00:48;;;;;;;5.45;3.70;;;;;;;10.24;83.81;98778.47;4138939;28;20470;-71
2021/10/15 01:02:48;;;;;;;5.85;3.80;;;;;;;10.22;83.36;98772.47;4138114;28;20046;-71
2021/10/15 01:04:48;;;;;;;5.63;3.70;;;;;;;10.22;84.08;98772.47;4139228;28;20038;-71
2021/10/15 01:06:49;;;;;;;5.85;3.63;;;;;;;10.21;84.15;98771.69;4138305;28;20038;-71
2021/10/15 01:08:50;;;;;;;4.63;3.20;;;;;;;10.24;83.44;98768.19;4137871;28;20034;-72
2021/10/15 01:10:50;;;;;;;6.45;3.78;;;;;;;10.23;83.93;98774.09;4137782;28;20117;-71
2021/10/15 01:12:52;;;;;;;3.70;3.20;;;;;;;10.20;83.99;98761.78;4137868;28;20042;-71
2021/10/15 01:14:52;;;;;;;3.85;3.15;;;;;;;10.17;84.67;98751.44;4137521;28;21729;-72
2021/10/15 01:16:53;;;;;;;8.23;3.88;;;;;;;10.19;84.02;98751.91;4143424;28;20132;-72
2021/10/15 01:18:57;;;;;;;4.88;3.75;;;;;;;10.26;83.22;98751.22;4141299;28;20090;-71
2021/10/15 01:20:57;;;;;;;5.55;3.70;;;;;;;10.28;83.05;98748.91;4137831;28;20370;-71
2021/10/15 01:22:57;;;;;;;4.70;3.22;;;;;;;10.28;84.03;98752.47;4140066;28;20034;-72
2021/10/15 01:24:58;;;;;;;6.07;3.35;;;;;;;10.27;83.71;98747.31;4137186;28;20247;-71
2021/10/15 01:27:06;;;;;;;7.13;3.17;;;;;;;10.25;83.45;98741.34;4137931;28;20038;-71
2021/10/15 01:29:07;;;;;;;5.38;3.80;;;;;;;10.20;84.27;98745.19;4136763;28;20141;-72
2021/10/15 01:31:08;;;;;;;5.47;3.28;;;;;;;10.12;84.94;98726.91;4137975;28;20054;-71
2021/10/15 01:33:08;;;;;;;6.30;3.28;;;;;;;10.09;84.80;98739.50;4137744;28;20687;-71
2021/10/15 01:35:09;;;;;;;5.05;3.53;;;;;;;10.06;85.05;98734.69;4136944;28;20073;-71
2021/10/15 01:37:09;;;;;;;4.88;3.22;;;;;;;10.06;85.21;98733.88;4137551;28;20050;-71
2021/10/15 01:39:09;;;;;;;5.03;3.35;;;;;;;10.00;86.07;98732.59;4137644;28;20050;-72
2021/10/15 01:41:10;;;;;;;5.30;3.22;;;;;;;10.01;85.75;98728.66;4141648;28;20098;-72
2021/10/15 01:43:11;;;;;;;6.28;3.90;;;;;;;10.01;85.44;98718.44;4138366;28;20053;-72
2021/10/15 01:45:11;;;;;;;7.82;3.75;;;;;;;10.00;85.34;98727.84;4137893;28;20119;-72
2021/10/15 01:47:12;;;;;;;4.32;3.53;;;;;;;10.03;85.27;98723.56;4137452;28;20065;-71
2021/10/15 01:49:12;;;;;;;5.68;3.40;;;;;;;10.05;84.91;98722.03;4137612;28;20049;-71
2021/10/15 01:51:12;;;;;;;6.20;4.22;;;;;;;10.11;84.45;98720.56;4137415;28;20084;-71
2021/10/15 01:53:13;;;;;;;8.68;4.25;;;;;;;10.13;84.30;98720.19;4136945;28;20046;-72
2021/10/15 01:55:13;;;;;;;5.40;3.88;;;;;;;10.18;83.91;98724.59;4138595;28;20753;-72
2021/10/15 01:57:14;;;;;;;7.82;3.63;;;;;;;10.18;83.83;98728.19;4137464;28;20437;-71
2021/10/15 01:59:14;;;;;;;6.45;3.70;;;;;;;10.18;84.02;98717.13;4137664;28;20386;-71
2021/10/15 02:01:14;;;;;;;5.07;3.30;;;;;;;10.21;83.71;98719.16;4137467;28;20506;-72
2021/10/15 02:03:15;;;;;;;5.55;3.50;;;;;;;10.22;84.30;98706.13;4136279;28;20034;-71
2021/10/15 02:05:17;;;;;;;5.50;3.42;;;;;;;10.18;84.14;98705.25;4137005;28;20486;-71
2021/10/15 02:07:18;;;;;;;5.78;3.72;;;;;;;10.15;84.56;98701.25;4136830;28;20103;-71
2021/10/15 02:09:19;;;;;;;6.10;3.70;;;;;;;10.13;84.70;98698.06;4137424;28;20042;-71
2021/10/15 02:11:19;;;;;;;9.63;3.92;;;;;;;10.13;84.25;98695.31;4137254;28;20093;-71
2021/10/15 02:13:19;;;;;;;5.03;3.70;;;;;;;10.13;84.51;98698.88;4136913;28;20559;-71
2021/10/15 02:15:20;;;;;;;4.85;3.83;;;;;;;10.10;84.33;98690.53;4137304;28;20080;-72
2021/10/15 02:17:20;;;;;;;7.20;4.18;;;;;;;10.14;84.61;98691.38;4137012;28;20041;-72
2021/10/15 02:19:20;;;;;;;5.78;3.90;;;;;;;10.10;84.67;98685.81;4137495;28;20042;-72
2021/10/15 02:21:21;;;;;;;6.22;3.80;;;;;;;10.10;85.05;98679.47;4141229;28;20138;-71
2021/10/15 02:23:21;;;;;;;7.45;4.10;;;;;;;10.12;84.47;98683.47;4140571;28;20551;-71
2021/10/15 02:25:23;;;;;;;7.18;5.00;;;;;;;10.09;85.00;98689.75;4137440;28;20045;-72
2021/10/15 02:27:24;;;;;;;7.25;4.85;;;;;;;10.08;84.23;98677.06;4137149;28;20049;-71
2021/10/15 02:29:25;;;;;;;5.80;4.07;;;;;;;10.11;84.08;98673.56;4136892;28;20046;-72
2021/10/15 02:31:25;;;;;;;5.82;4.43;;;;;;;10.16;84.43;98666.13;4137127;28;20050;-71
2021/10/15 02:33:25;;;;;;;6.00;4.70;;;;;;;10.15;84.14;98670.84;4136448;28;20037;-72
2021/10/15 02:35:26;;;;;;;5.43;4.28;;;;;;;10.12;84.43;98666.88;4136638;28;20060;-72
2021/10/15 02:37:26;;;;;;;8.57;5.32;;;;;;;10.12;83.60;98666.88;4137216;28;20494;-71
2021/10/15 02:39:26;;;;;;;6.13;4.32;;;;;;;10.10;84.33;98652.63;4136956;28;20072;-71
2021/10/15 02:41:27;;;;;;;5.70;4.32;;;;;;;10.13;83.29;98657.41;4136802;28;20046;-72
2021/10/15 02:43:27;;;;;;;5.50;4.10;;;;;;;10.12;83.65;98653.03;4136847;28;20304;-72
2021/10/15 02:45:27;;;;;;;6.80;4.57;;;;;;;10.12;83.10;98650.28;4138700;28;20261;-71
2021/10/15 02:47:28;;;;;;;7.60;5.03;;;;;;;10.15;82.88;98648.72;4135600;28;20046;-71
2021/10/15 02:49:28;;;;;;;6.60;4.15;;;;;;;10.18;83.43;98647.19;4136609;28;20141;-72
2021/10/15 02:51:29;;;;;;;8.65;4.70;;;;;;;10.22;82.25;98653.59;4136791;28;20646;-72
2021/10/15 02:53:30;;;;;;;6.43;4.72;;;;;;;10.16;82.92;98644.00;4139992;28;20075;-72
2021/10/15 02:55:30;;;;;;;6.97;5.22;;;;;;;10.14;82.84;98647.94;4136624;28;20038;-72
2021/10/15 02:57:30;;;;;;;6.57;4.53;;;;;;;10.19;82.37;98640.50;4136741;28;20049;-72
2021/10/15 02:59:31;;;;;;;9.20;4.88;;;;;;;10.18;82.98;98638.88;4138785;28;20049;-72
2021/10/15 03:01:31;;;;;;;5.80;4.25;;;;;;;10.15;82.95;98632.16;4136487;28;20042;-71
2021/10/15 03:03:31;;;;;;;5.60;4.45;;;;;;;10.15;82.74;98640.44;4136034;28;20471;-71
2021/10/15 03:05:31;;;;;;;4.53;3.67;;;;;;;10.09;83.07;98625.31;4136464;28;20406;-72
2021/10/15 03:07:34;;;;;;;8.45;4.90;;;;;;;10.10;82.92;98630.50;4139332;28;20045;-72
2021/10/15 03:09:34;;;;;;;7.28;3.72;;;;;;;10.04;83.23;98626.44;4136587;28;20619;-72
2021/10/15 03:11:35;;;;;;;6.28;4.10;;;;;;;10.05;83.72;98618.97;4137524;28;20037;-72
2021/10/15 03:13:35;;;;;;;5.30;4.20;;;;;;;10.00;83.97;98627.56;4138137;28;20176;-72
2021/10/15 03:15:36;;;;;;;4.93;3.58;;;;;;;9.98;83.92;98627.94;4137707;28;20042;-72
2021/10/15 03:17:36;;;;;;;7.32;4.20;;;;;;;9.99;84.41;98625.97;4140245;28;20054;-72
2021/10/15 03:19:36;;;;;;;7.90;4.03;;;;;;;9.93;84.42;98619.13;4143692;28;20092;-71
2021/10/15 03:21:37;;;;;;;7.13;4.38;;;;;;;9.92;84.57;98634.94;4132760;28;20050;-71
2021/10/15 03:23:37;;;;;;;5.07;3.58;;;;;;;9.85;85.08;98630.09;4126735;28;20129;-71
2021/10/15 03:25:38;;;;;;;5.45;3.90;;;;;;;9.85;84.83;98623.78;4129342;28;20091;-71
2021/10/15 03:27:38;;;;;;;8.82;4.75;;;;;;;9.81;84.36;98628.44;4127087;28;20491;-72
2021/10/15 03:29:38;;;;;;;5.85;3.88;;;;;;;9.79;84.60;98619.72;4126570;28;20053;-71
2021/10/15 03:31:39;;;;;;;5.68;4.05;;;;;;;9.84;84.64;98619.41;4129338;28;20128;-71
2021/10/15 03:33:39;;;;;;;8.05;4.05;;;;;;;9.81;84.51;98614.63;4126026;28;20065;-72
2021/10/15 03:35:39;;;;;;;6.45;4.82;;;;;;;9.82;84.83;98616.22;4129469;28;20489;-72
2021/10/15 03:37:40;;;;;;;5.53;3.75;;;;;;;9.79;84.27;98609.47;4126425;28;20100;-71
2021/10/15 03:39:40;;;;;;;6.80;4.20;;;;;;;9.76;85.65;98615.75;4127474;28;20049;-71
2021/10/15 03:41:40;;;;;;;5.85;4.50;;;;;;;9.77;84.64;98608.25;4128487;28;20065;-71
2021/10/15 03:43:41;;;;;;;6.70;3.80;;;;;;;9.75;85.52;98596.75;4125953;28;20339;-71
2021/10/15 03:45:41;;;;;;;9.15;4.88;;;;;;;9.76;85.12;98598.34;4129742;28;20046;-72
2021/10/15 03:47:42;;;;;;;6.60;4.60;;;;;;;9.74;84.45;98600.69;4125948;28;20039;-71
2021/10/15 03:49:42;;;;;;;7.85;4.80;;;;;;;9.68;84.90;98594.69;4127785;28;20118;-71
2021/10/15 03:51:42;;;;;;;5.97;4.53;;;;;;;9.71;84.68;98579.31;4127214;28;20072;-71
2021/10/15 03:53:43;;;;;;;6.68;4.03;;;;;;;9.78;83.97;98583.00;4125663;28;20432;-71
2021/10/15 03:55:43;;;;;;;6.28;4.65;;;;;;;9.77;84.03;98584.19;4127332;28;20046;-71
2021/10/15 03:57:43;;;;;;;7.13;4.30;;;;;;;9.69;84.81;98582.47;4126123;28;20033;-71
2021/10/15 03:59:44;;;;;;;7.15;4.72;;;;;;;9.70;84.72;98583.25;4128216;28;20037;-72
2021/10/15 04:01:44;;;;;;;6.13;4.18;;;;;;;9.69;84.35;98578.91;4122280;28;20057;-72
2021/10/15 04:03:44;;;;;;;6.47;4.38;;;;;;;9.68;84.20;98580.06;4127555;28;20081;-71
2021/10/15 04:05:45;;;;;;;7.10;4.63;;;;;;;9.63;84.13;98578.41;4119230;28;20065;-71
2021/10/15 04:07:45;;;;;;;6.25;4.40;;;;;;;9.56;84.43;98570.00;4120265;28;20066;-72
2021/10/15 04:09:45;;;;;;;5.47;4.53;;;;;;;9.48;84.45;98560.78;4117109;28;20437;-71
2021/10/15 04:11:46;;;;;;;6.95;4.32;;;;;;;9.40;84.60;98561.84;4118588;28;20046;-72
2021/10/15 04:13:46;;;;;;;8.45;4.68;;;;;;;9.41;85.07;98570.91;4118740;28;20125;-71
2021/10/15 04:15:46;;;;;;;6.88;4.03;;;;;;;9.36;84.97;98563.75;4123170;28;20042;-71
2021/10/15 04:17:47;;;;;;;6.55;3.95;;;;;;;9.33;85.16;98560.91;4122502;28;20509;-71
2021/10/15 04:19:47;;;;;;;6.50;4.35;;;;;;;9.27;85.71;98547.44;4122560;28;20085;-71
2021/10/15 04:21:47;;;;;;;5.80;3.88;;;;;;;9.21;85.63;98543.38;4122750;28;20042;-71
2021/10/15 04:23:48;;;;;;;6.63;4.07;;;;;;;9.22;85.95;98553.25;4121962;28;20090;-72
2021/10/15 04:25:48;;;;;;;5.13;3.97;;;;;;;9.19;86.73;98547.66;4123040;28;20038;-72
2021/10/15 04:27:48;;;;;;;6.30;4.20;;;;;;;9.14;85.64;98553.47;4122365;28;20065;-71
2021/10/15 04:29:49;;;;;;;7.80;4.07;;;;;;;9.12;85.92;98556.63;4121321;28;20051;-72
2021/10/15 04:31:49;;;;;;;7.72;4.28;;;;;;;9.09;86.98;98548.25;4124758;28;20044;-71
2021/10/15 04:33:50;;;;;;;5.63;4.13;;;;;;;9.05;86.35;98547.41;4121665;28;20046;-71
2021/10/15 04:35:50;;;;;;;5.40;3.70;;;;;;;8.99;86.46;98544.13;4122766;28;20470;-71
2021/10/15 04:37:51;;;;;;;6.18;3.90;;;;;;;9.03;85.66;98550.53;4122406;28;20049;-71
2021/10/15 04:39:51;;;;;;;7.30;4.22;;;;;;;8.97;86.81;98530.72;4122027;28;20038;-71
2021/10/15 04:41:51;;;;;;;6.07;4.13;;;;;;;8.96;87.75;98537.41;4122633;28;20066;-71
2021/10/15 04:43:52;;;;;;;5.45;4.03;;;;;;;8.93;86.29;98535.34;4121991;28;20129;-72
2021/10/15 04:45:52;;;;;;;6.32;4.07;;;;;;;8.89;86.44;98539.22;4122024;28;20034;-72
2021/10/15 04:47:52;;;;;;;4.55;3.42;;;;;;;8.86;87.82;98537.19;4121681;28;20042;-72
2021/10/15 04:49:53;;;;;;;6.10;4.28;;;;;;;8.84;87.66;98540.31;4124233;28;20254;-71
2021/10/15 04:51:53;;;;;;;6.80;4.35;;;;;;;8.79;87.07;98540.63;4121336;28;20046;-71
2021/10/15 04:53:54;;;;;;;7.50;4.05;;;;;;;8.76;88.52;98533.06;4123162;28;20050;-72
2021/10/15 04:55:54;;;;;;;6.70;4.20;;;;;;;8.77;88.46;98542.94;4121788;28;20426;-72
2021/10/15 04:57:57;;;;;;;5.47;4.10;;;;;;;8.75;88.24;98536.97;4122474;28;20141;-72
2021/10/15 04:59:57;;;;;;;5.10;4.05;;;;;;;8.77;88.37;98537.44;4121802;28;20042;-71
2021/10/15 05:01:57;;;;;;;6.40;3.95;;;;;;;8.75;87.07;98531.47;4121491;28;20050;-71
2021/10/15 05:03:58;;;;;;;6.10;4.07;;;;;;;8.67;87.91;98533.28;4123633;28;20077;-72
2021/10/15 05:05:58;;;;;;;6.35;4.07;;;;;;;8.64;88.87;98531.25;4122303;28;20034;-72
2021/10/15 05:07:59;;;;;;;7.57;3.80;;;;;;;8.66;88.82;98533.66;4122013;28;20691;-72
2021/10/15 05:09:59;;;;;;;5.07;3.92;;;;;;;8.55;89.13;98529.88;4120942;28;20720;-71
2021/10/15 05:12:02;;;;;;;5.95;4.18;;;;;;;8.50;89.21;98535.69;4121772;28;20092;-71
2021/10/15 05:14:02;;;;;;;;;;;;;;;8.48;89.02;98533.28;4120762;28;20042;-71
2021/10/15 05:16:03;;;;;;;6.72;4.00;;;;;;;8.44;89.43;98532.44;4121394;28;20005;-71
2021/10/15 05:18:03;;;;;;;8.05;4.68;;;;;;;8.43;89.11;98539.88;4121353;28;20351;-71
2021/10/15 05:20:06;;;;;;;6.95;5.03;;;;;;;8.40;88.61;98537.84;4122038;28;20177;-71
2021/10/15 05:22:06;;;;;;;7.60;4.47;;;;;;;8.39;89.51;98532.72;4123627;28;20335;-71
2021/10/15 05:24:06;;;;;;;7.43;4.25;;;;;;;8.39;89.56;98530.75;4120960;28;20065;-72
2021/10/15 05:26:07;;;;;;;7.97;4.97;;;;;;;8.38;88.14;98531.13;4121141;28;20026;-71
2021/10/15 05:28:07;;;;;;;9.02;4.82;;;;;;;8.35;88.34;98527.09;4121825;28;20248;-71
2021/10/15 05:30:09;;;;;;;8.30;4.90;;;;;;;8.40;88.48;98535.09;4120698;28;20045;-72
2021/10/15 05:32:09;;;;;;;7.65;4.63;;;;;;;8.40;88.77;98526.03;4121772;28;20741;-71
2021/10/15 05:34:09;;;;;;;6.78;4.65;;;;;;;8.40;89.30;98520.53;4119412;28;20041;-71
2021/10/15 05:36:10;;;;;;;4.90;3.67;;;;;;;8.37;88.54;98518.50;4121480;28;20117;-72
2021/10/15 05:38:10;;;;;;;6.38;3.83;;;;;;;8.43;87.42;98523.34;4120152;28;20552;-71
2021/10/15 05:40:11;;;;;;;6.60;4.20;;;;;;;8.47;88.27;98511.59;4121255;28;20036;-71
2021/10/15 05:42:12;;;;;;;7.65;3.67;;;;;;;8.45;88.13;98511.97;4125140;28;20034;-71
2021/10/15 05:44:12;;;;;;;5.88;3.65;;;;;;;8.48;88.11;98513.19;4120597;28;20026;-71
2021/10/15 05:46:12;;;;;;;6.35;4.13;;;;;;;8.47;88.35;98515.16;4121758;28;20030;-71
2021/10/15 05:48:13;;;;;;;7.70;3.75;;;;;;;8.46;88.33;98510.00;4119824;28;20054;-71
2021/10/15 05:50:13;;;;;;;5.05;3.53;;;;;;;8.43;87.60;98511.50;4121481;28;20030;-71
2021/10/15 05:52:17;;;;;;;4.25;3.20;;;;;;;8.43;89.48;98517.81;4127157;28;20036;-71
2021/10/15 05:54:28;;;;;;;5.47;3.30;;;;;;;8.44;87.40;98519.44;4120942;28;20034;-71
2021/10/15 05:58:53;;;;;;;7.10;2.95;;;;;;;8.42;86.50;98510.72;4121370;28;20088;-71
2021/10/15 06:00:53;;;;;;;5.43;3.40;;;;;;;8.42;86.80;98512.69;4121265;28;20183;-71
2021/10/15 06:02:54;;;;;;;3.50;2.95;;;;;;;8.41;87.63;98511.09;4123135;28;20038;-71
2021/10/15 06:14:18;;;;;;;6.75;3.60;;;;;;;8.53;83.11;98512.91;4124543;28;20097;-72
2021/10/15 06:16:21;;;;;;;5.82;3.10;;;;;;;8.49;84.31;98515.59;4137437;28;20029;-71
2021/10/15 06:18:23;;;;;;;;;;;;;;;8.49;84.37;98515.59;4137561;28;20050;-71
2021/10/15 06:20:24;;;;;;;5.63;3.30;;;;;;;8.50;83.85;98517.16;4139539;28;19917;-72
2021/10/15 06:22:27;;;;;;;4.93;3.22;;;;;;;8.51;84.35;98520.72;4137427;28;20046;-71
2021/10/15 06:24:27;;;;;;;4.97;3.67;;;;;;;8.48;85.51;98515.94;4136070;28;20069;-71
2021/10/15 06:26:28;;;;;;;6.00;3.65;;;;;;;8.53;84.66;98515.66;4136912;28;20455;-71
2021/10/15 06:28:28;;;;;;;6.28;3.75;;;;;;;8.54;84.58;98514.50;4136510;28;20168;-71
2021/10/15 06:30:30;;;;;;;7.57;4.53;;;;;;;8.54;84.53;98518.06;4137381;28;20038;-71
2021/10/15 06:32:30;;;;;;;6.78;4.28;;;;;;;8.55;84.83;98516.91;4136839;28;20050;-71
2021/10/15 06:34:31;;;;;;;7.72;4.13;;;;;;;8.52;83.58;98516.81;4138447;28;20096;-72
2021/10/15 06:36:31;;;;;;;5.53;4.03;;;;;;;8.51;83.80;98517.97;4137111;28;20046;-71
2021/10/15 06:38:31;;;;;;;6.30;4.25;;;;;;;8.53;83.74;98518.44;4141514;28;20038;-71
2021/10/15 06:40:33;;;;;;;8.38;3.95;;;;;;;8.53;84.00;98512.91;4140445;28;20068;-71
2021/10/15 06:42:33;;;;;;;5.30;3.95;;;;;;;8.52;84.55;98512.09;4138900;28;20081;-71
2021/10/15 06:44:33;;;;;;;8.07;4.63;;;;;;;8.50;84.38;98497.88;4136458;28;20069;-71
2021/10/15 06:46:34;;;;;;;7.45;4.85;;;;;;;8.54;84.02;98509.78;4136922;28;20042;-72
2021/10/15 06:48:34;;;;;;;7.13;4.57;;;;;;;8.58;85.81;98513.41;4139887;28;20364;-71
2021/10/15 06:50:35;;;;;;;6.68;4.93;;;;;;;8.59;85.45;98512.22;4136425;28;20049;-71
2021/10/15 06:52:40;;;;;;;7.72;5.30;;;;;;;8.59;84.28;98508.69;4137009;28;20045;-71
2021/10/15 06:54:40;;;;;;;7.20;4.65;;;;;;;8.63;84.42;98507.59;4135253;28;20425;-71
2021/10/15 06:56:40;;;;;;;8.45;5.30;;;;;;;8.69;83.74;98508.13;4136104;28;20048;-71
2021/10/15 06:58:41;;;;;;;8.40;5.88;;;;;;;8.78;82.34;98518.91;4137148;28;20034;-71
2021/10/15 07:00:41;;;;;;;10.65;5.18;;;;;;;8.73;83.25;98504.25;4136884;28;20549;-71
2021/10/15 07:02:42;;;;;;;6.40;4.22;;;;;;;8.75;83.34;98498.34;4136460;28;20081;-71
2021/10/15 07:04:42;;;;;;;9.52;5.13;;;;;;;8.83;83.59;98511.13;4136272;28;20433;-71
2021/10/15 07:06:43;;;;;;;7.18;5.10;;;;;;;8.85;82.99;98516.25;4136825;28;20125;-71
2021/10/15 07:08:43;;;;;;;13.43;5.38;;;;;;;8.86;82.65;98515.94;4136675;28;20037;-71
2021/10/15 07:10:43;;;;;;;6.47;4.93;;;;;;;8.87;82.95;98513.97;4136838;28;20056;-71
2021/10/15 07:12:45;;;;;;;5.85;4.53;;;;;;;8.91;83.13;98515.59;4136615;28;20534;-71
2021/10/15 07:14:45;;;;;;;7.82;4.88;;;;;;;8.98;81.30;98495.63;4137816;28;20034;-71
2021/10/15 07:16:46;;;;;;;9.93;5.32;;;;;;;9.00;81.49;98498.81;4136992;28;20378;-71
2021/10/15 07:18:46;;;;;;;10.23;6.82;;;;;;;9.04;81.52;98502.44;4139012;28;20233;-71
2021/10/15 07:20:47;;;;;;;7.10;5.45;;;;;;;9.05;82.36;98503.25;4137950;28;20038;-71
2021/10/15 07:22:47;;;;;;;10.30;5.30;;;;;;;9.03;82.55;98500.84;4136319;28;20096;-71
2021/10/15 07:24:47;;;;;;;7.68;5.07;;;;;;;9.05;81.35;98512.31;4136062;28;20064;-71
2021/10/15 07:26:48;;;;;;;9.45;5.57;;;;;;;9.05;81.66;98506.00;4135983;28;20061;-71
2021/10/15 07:28:48;;;;;;;9.05;5.43;;;;;;;9.07;81.13;98493.41;4136838;28;20050;-71
2021/10/15 07:30:49;;;;;;;7.68;5.07;;;;;;;9.06;81.61;98496.56;4136563;28;20386;-71
2021/10/15 07:32:52;;;;;;;12.05;6.05;;;;;;;9.06;81.97;98500.13;4136525;28;20090;-71
2021/10/15 07:34:52;;;;;;;;;;;;;;;9.11;81.01;98502.56;4136150;28;20049;-71
2021/10/15 07:36:53;;;;;;;6.93;4.70;;;;;;;9.10;82.54;98508.44;4136546;28;19917;-71
2021/10/15 07:38:53;;;;;;;8.80;5.30;;;;;;;9.12;81.91;98514.41;4136439;28;20509;-71
2021/10/15 07:40:53;;;;;;;7.28;4.88;;;;;;;9.14;82.57;98512.06;4135149;28;20038;-71
2021/10/15 07:42:54;;;;;;;7.72;5.55;;;;;;;9.15;81.78;98503.44;4136611;28;20042;-71
2021/10/15 07:44:54;;;;;;;6.55;5.20;;;;;;;9.19;80.82;98492.47;4135996;28;20673;-71
2021/10/15 07:46:54;;;;;;;7.15;5.15;;;;;;;9.17;80.77;98490.03;4136352;28;20319;-72
2021/10/15 07:48:55;;;;;;;6.60;5.05;;;;;;;9.17;81.18;98495.56;4136555;28;20443;-71
2021/10/15 07:50:55;;;;;;;10.40;5.05;;;;;;;9.23;80.55;98487.78;4136473;28;20498;-71
2021/10/15 07:52:56;;;;;;;8.77;5.70;;;;;;;9.25;80.63;98497.28;4136637;28;20038;-71
2021/10/15 07:54:56;;;;;;;10.23;5.38;;;;;;;9.29;79.56;98498.16;4135427;28;20432;-72
2021/10/15 07:56:58;;;;;;;7.70;4.55;;;;;;;9.36;79.66;98497.47;4139441;28;20045;-71
2021/10/15 07:59:00;;;;;;;7.25;4.60;;;;;;;9.46;78.83;98507.91;4138164;28;20078;-71
2021/10/15 08:01:00;;;;;;;8.73;5.28;;;;;;;9.44;78.45;98501.97;4136269;28;20485;-71
2021/10/15 08:03:01;;;;;;;9.77;4.82;;;;;;;9.42;78.16;98487.69;4143451;28;20087;-71
2021/10/15 08:05:02;;;;;;;7.63;4.88;;;;;;;9.42;79.39;98490.47;4142044;28;20116;-71
2021/10/15 08:07:03;;;;;;;11.88;4.88;;;;;;;9.45;79.17;98484.22;4139513;28;20052;-71
2021/10/15 08:09:03;;;;;;;9.13;4.85;;;;;;;9.50;78.56;98486.66;4138608;28;20420;-71
2021/10/15 08:11:04;;;;;;;8.57;4.93;;;;;;;9.54;79.07;98487.50;4138898;28;20038;-71
2021/10/15 08:13:05;;;;;;;8.48;4.72;;;;;;;9.60;78.59;98479.72;4138941;28;20041;-72
2021/10/15 08:15:08;;;;;;;6.68;4.72;;;;;;;9.67;79.54;98490.84;4140333;28;20056;-71
2021/10/15 08:17:08;;;;;;;7.75;4.82;;;;;;;9.81;77.64;98485.53;4140992;28;20198;-71
2021/10/15 08:19:09;;;;;;;7.78;4.75;;;;;;;9.87;77.46;98477.75;4139031;28;20046;-71
2021/10/15 08:21:09;;;;;;;9.48;5.40;;;;;;;9.98;77.28;98481.44;4139284;28;20397;-71
2021/10/15 08:23:10;;;;;;;9.13;5.38;;;;;;;10.02;77.35;98487.03;4138067;28;20080;-71
2021/10/15 08:25:10;;;;;;;8.25;4.88;;;;;;;10.05;77.16;98494.56;4140400;28;20041;-71
2021/10/15 08:27:10;;;;;;;8.52;5.05;;;;;;;10.06;76.64;98488.66;4139131;28;20042;-72
2021/10/15 08:29:10;;;;;;;7.28;5.22;;;;;;;10.16;77.44;98500.22;4138559;28;20272;-71
2021/10/15 08:31:12;;;;;;;8.88;5.35;;;;;;;10.29;76.23;98501.63;4138778;28;20045;-71
2021/10/15 08:33:12;;;;;;;6.50;4.95;;;;;;;10.34;75.87;98501.28;4142942;28;20318;-71
2021/10/15 08:35:12;;;;;;;8.32;5.40;;;;;;;10.39;75.62;98499.00;4138488;28;20042;-71
2021/10/15 08:37:13;;;;;;;9.05;5.38;;;;;;;10.34;76.58;98482.75;4138701;28;20141;-72
2021/10/15 08:39:17;;;;;;;7.13;5.43;;;;;;;10.51;75.57;98483.31;4138125;28;20096;-72
2021/10/15 08:41:20;;;;;;;7.53;5.50;;;;;;;10.61;75.05;98490.97;4138940;28;20065;-72
2021/10/15 08:43:33;;;;;;;6.47;5.13;;;;;;;10.69;74.01;98487.91;4138135;28;20070;-72
2021/10/15 08:45:34;;;;;;;12.63;5.95;;;;;;;10.72;75.38;98477.25;4138634;28;20034;-71
2021/10/15 08:47:34;;;;;;;8.68;6.22;;;;;;;10.79;73.54;98471.78;4138750;28;20081;-71
2021/10/15 08:49:35;;;;;;;9.30;6.18;;;;;;;10.76;73.94;98478.88;4138635;28;20056;-71
2021/10/15 08:51:39;;;;;;;8.55;5.63;;;;;;;10.72;74.02;98466.97;4138694;28;20050;-71
2021/10/15 08:53:52;;;;;;;10.05;5.93;;;;;;;10.78;73.22;98472.97;4141341;28;20224;-71
2021/10/15 08:55:53;;;;;;;9.15;6.53;;;;;;;10.85;72.99;98475.81;4138778;28;20034;-71
2021/10/15 08:57:56;;;;;;;8.23;5.75;;;;;;;10.82;73.60;98474.56;4138367;28;20053;-71
2021/10/15 08:59:56;;;;;;;12.02;7.47;;;;;;;10.85;73.73;98478.56;4138871;28;20049;-71
2021/10/15 09:01:58;;;;;;;8.35;5.95;;;;;;;10.88;73.45;98475.03;4138497;28;20085;-71
2021/10/15 09:04:03;;;;;;;9.50;6.10;;;;;;;10.91;73.62;98483.38;4137562;28;20153;-71
2021/10/15 09:06:08;;;;;;;7.63;5.93;;;;;;;10.95;72.29;98483.41;4140290;28;20068;-71
2021/10/15 09:08:08;;;;;;;10.48;6.13;;;;;;;10.86;72.44;98483.72;4136455;28;20091;-71
2021/10/15 09:10:19;;;;;;;9.65;6.55;;;;;;;10.82;72.50;98488.41;4138282;28;20030;-71
2021/10/15 09:12:20;;;;;;;11.48;6.85;;;;;;;10.81;72.97;98494.34;4137778;28;20021;-71
2021/10/15 09:14:25;;;;;;;9.60;6.45;;;;;;;10.72;73.72;98496.59;4137280;28;20045;-71
2021/10/15 09:16:25;;;;;;;9.98;6.60;;;;;;;10.69;73.63;98509.25;4141962;28;20038;-71
2021/10/15 09:18:34;;;;;;;10.65;7.43;;;;;;;10.63;74.66;98508.78;4137915;28;20050;-72
2021/10/15 09:20:35;;;;;;;10.68;7.15;;;;;;;10.58;76.31;98509.09;4138082;28;20045;-71
2021/10/15 09:22:38;;;;;;;9.05;7.07;;;;;;;10.49;74.94;98507.78;4137222;28;20042;-71
2021/10/15 09:24:46;;;;;;;11.50;7.05;;;;;;;10.35;76.28;98509.22;4137474;28;20394;-71
2021/10/15 09:26:48;;;;;;;10.48;7.25;;;;;;;10.28;76.88;98508.34;4138134;28;20117;-71
2021/10/15 09:28:48;;;;;;;13.40;8.38;;;;;;;10.28;76.81;98503.59;4138087;28;20076;-72
2021/10/15 09:30:51;;;;;;;12.05;6.85;;;;;;;10.28;77.13;98502.81;4137692;28;20054;-71
2021/10/15 09:32:54;;;;;;;12.25;7.60;;;;;;;10.26;78.05;98513.44;4137674;28;20046;-72
2021/10/15 09:34:55;;;;;;;12.82;7.00;;;;;;;10.21;77.75;98509.00;4136936;28;20033;-71
2021/10/15 09:36:56;;;;;;;11.13;6.85;;;;;;;10.19;77.75;98505.81;4137641;28;20042;-71
2021/10/15 09:38:56;;;;;;;8.88;6.70;;;;;;;10.21;78.77;98508.22;4137323;28;20174;-72
2021/10/15 09:40:56;;;;;;;13.80;6.60;;;;;;;10.16;78.55;98506.56;4140737;28;20041;-72
2021/10/15 09:42:59;;;;;;;11.18;7.00;;;;;;;10.19;78.30;98500.28;4137342;28;20485;-71
2021/10/15 09:45:18;;;;;;;10.40;7.78;;;;;;;10.09;78.92;98503.69;4137500;28;20729;-71